Time;durP1;ratioP1;P1;durP2;ratioP2;P2;SDS_P1;SDS_P2;PMS_P1;PMS_P2;Temp;Humidity;BMP_temperature;BMP_pressure;BME280_temperature;BME280_humidity;BME280_pressure;Samples;Min_cycle;Max_cycle;Signal;HPM_P1;HPM_P2
2020/12/07 05:05:22;;;;;;;13.35;7.72;;;1.30;99.90;;;;;;4996450;24;20174;-79
2020/12/07 05:07:50;;;;;;;16.65;9.18;;;1.30;99.90;;;;;;4738012;30;20048;-79
2020/12/07 06:16:43;;;;;;;7.13;5.45;;;0.90;99.90;;;;;;4751407;30;20063;-79
2020/12/07 06:19:17;;;;;;;7.13;5.18;;;0.80;99.90;;;;;;4722562;30;20139;-80
2020/12/07 06:22:01;;;;;;;7.80;5.18;;;0.80;99.90;;;;;;4736766;30;20133;-79
2020/12/07 06:24:42;;;;;;;7.95;5.35;;;0.80;99.90;;;;;;4723793;30;20485;-80
2020/12/07 06:27:11;;;;;;;8.32;5.32;;;0.90;99.90;;;;;;4719481;30;20057;-80
2020/12/07 06:30:06;;;;;;;6.93;4.90;;;0.80;99.90;;;;;;4733996;30;20053;-80
2020/12/07 06:32:51;;;;;;;7.57;5.65;;;0.90;99.90;;;;;;4719460;30;20072;-80
2020/12/07 06:35:20;;;;;;;6.55;4.68;;;0.80;99.90;;;;;;4719487;30;20056;-80
2020/12/07 06:37:52;;;;;;;7.57;5.53;;;0.80;99.90;;;;;;4733802;30;20513;-80
2020/12/07 06:40:21;;;;;;;8.85;5.85;;;0.70;99.90;;;;;;4733911;30;20048;-80
2020/12/07 06:42:48;;;;;;;9.35;5.60;;;0.70;99.90;;;;;;4705011;30;20076;-80
2020/12/07 06:45:41;;;;;;;9.98;7.10;;;0.70;99.90;;;;;;4719412;30;20832;-80
2020/12/07 06:48:13;;;;;;;8.90;6.05;;;0.70;99.90;;;;;;4703667;30;20514;-80
2020/12/07 06:50:42;;;;;;;9.20;6.28;;;0.70;99.90;;;;;;4719106;30;20057;-79
2020/12/07 11:50:59;;;;;;;8.00;4.20;;;1.90;99.90;;;;;;5497468;24;20067;-80
2020/12/07 11:53:31;;;;;;;6.05;3.92;;;1.90;99.90;;;;;;4716790;30;20419;-78
2020/12/07 11:56:02;;;;;;;5.65;4.15;;;1.90;99.90;;;;;;4718686;30;20060;-78
2020/12/07 11:58:29;;;;;;;7.38;4.47;;;1.80;99.90;;;;;;4718380;30;20055;-79
2020/12/07 12:01:03;;;;;;;5.95;4.25;;;1.80;99.90;;;;;;4718492;30;20049;-79
2020/12/07 12:03:30;;;;;;;7.03;4.18;;;1.80;99.90;;;;;;4718401;30;20056;-80
2020/12/07 12:05:56;;;;;;;6.90;4.32;;;1.70;99.90;;;;;;4718674;30;20143;-78
2020/12/07 12:08:25;;;;;;;8.00;5.18;;;1.70;99.90;;;;;;4704149;30;20049;-78
2020/12/07 12:10:53;;;;;;;8.50;5.28;;;1.70;99.90;;;;;;4718287;30;20151;-78
2020/12/07 12:13:20;;;;;;;7.03;4.45;;;1.80;99.90;;;;;;4718218;30;20049;-78
2020/12/07 12:15:51;;;;;;;6.80;4.40;;;1.90;99.90;;;;;;4718048;30;20067;-80
2020/12/07 12:18:23;;;;;;;9.13;5.53;;;1.80;99.90;;;;;;4718186;30;20053;-79
2020/12/07 12:20:58;;;;;;;10.93;6.32;;;1.90;99.90;;;;;;4689979;30;20136;-79
2020/12/07 12:23:24;;;;;;;8.10;5.00;;;1.90;99.90;;;;;;4718061;30;20053;-79
2020/12/07 12:25:56;;;;;;;6.38;4.47;;;2.00;99.90;;;;;;4717373;30;20080;-79
2020/12/07 12:28:23;;;;;;;6.28;4.32;;;2.00;99.90;;;;;;4718101;30;20111;-79
2020/12/07 12:30:56;;;;;;;7.80;4.75;;;2.00;99.90;;;;;;4701541;30;20049;-78
2020/12/07 12:33:28;;;;;;;7.35;4.00;;;2.00;99.90;;;;;;4713980;30;20148;-78
2020/12/07 12:35:54;;;;;;;7.22;4.55;;;2.00;99.90;;;;;;4714153;30;20096;-78
2020/12/07 12:38:21;;;;;;;6.78;4.53;;;2.00;99.90;;;;;;4713517;30;20057;-78
2020/12/07 12:40:47;;;;;;;6.53;4.47;;;2.00;99.90;;;;;;4713914;30;20469;-77
2020/12/07 12:43:14;;;;;;;9.35;5.40;;;1.90;99.90;;;;;;4713697;30;20053;-78
2020/12/07 12:45:40;;;;;;;7.20;4.88;;;1.90;99.90;;;;;;4714021;30;20053;-78
2020/12/07 12:48:07;;;;;;;11.43;6.18;;;1.90;99.90;;;;;;4714054;30;20633;-79
2020/12/07 12:50:39;;;;;;;6.80;4.93;;;2.00;99.90;;;;;;4713761;30;20049;-78
2020/12/07 12:53:06;;;;;;;11.13;5.13;;;2.00;99.90;;;;;;4713645;30;20477;-78
2020/12/07 12:55:38;;;;;;;6.95;4.93;;;2.10;99.90;;;;;;4713671;30;20088;-78
2020/12/07 12:58:04;;;;;;;6.03;4.47;;;2.10;99.90;;;;;;4713374;30;20049;-77
2020/12/07 13:00:31;;;;;;;11.07;6.32;;;2.10;99.90;;;;;;4713876;30;20060;-78
2020/12/07 13:02:59;;;;;;;8.73;5.95;;;2.10;99.90;;;;;;4727597;30;20053;-79
2020/12/07 13:05:27;;;;;;;7.80;5.40;;;2.20;99.90;;;;;;4713508;30;20053;-78
2020/12/07 13:07:54;;;;;;;8.70;5.35;;;2.20;99.90;;;;;;4727683;30;20053;-78
2020/12/07 13:10:21;;;;;;;11.13;5.18;;;2.20;99.90;;;;;;4727477;30;20053;-79
2020/12/07 13:12:47;;;;;;;8.88;5.30;;;2.20;99.90;;;;;;4713058;30;20061;-78
2020/12/07 13:15:14;;;;;;;9.35;6.45;;;2.20;99.90;;;;;;4729417;30;20061;-78
2020/12/07 13:17:43;;;;;;;10.07;6.32;;;2.20;99.90;;;;;;4730651;30;20478;-79
2020/12/07 13:20:12;;;;;;;8.65;5.82;;;2.20;99.90;;;;;;4730835;30;20053;-77
2020/12/07 13:22:50;;;;;;;7.43;5.70;;;2.30;99.90;;;;;;4730628;30;20128;-78
2020/12/07 13:25:26;;;;;;;9.52;6.47;;;2.30;99.90;;;;;;4716021;30;20148;-77
2020/12/07 13:28:09;;;;;;;6.05;4.15;;;2.30;99.90;;;;;;4730749;30;20057;-79
2020/12/07 13:30:36;;;;;;;6.57;4.20;;;2.40;99.90;;;;;;4730769;30;20390;-78
2020/12/07 13:33:09;;;;;;;5.25;3.55;;;2.50;99.90;;;;;;4717034;30;20076;-78
2020/12/07 13:35:42;;;;;;;6.90;4.22;;;2.50;99.90;;;;;;4731168;30;20414;-77
2020/12/07 13:38:09;;;;;;;16.58;9.15;;;2.50;99.90;;;;;;4730140;30;20124;-78
2020/12/07 13:40:40;;;;;;;6.85;5.25;;;2.70;99.90;;;;;;4730545;30;20053;-78
2020/12/07 13:43:11;;;;;;;8.77;6.90;;;2.80;99.90;;;;;;4730224;30;20140;-78
2020/12/07 13:45:45;;;;;;;7.03;5.43;;;2.80;99.90;;;;;;4730681;30;20429;-78
2020/12/07 13:48:16;;;;;;;7.10;4.97;;;2.80;99.90;;;;;;4730666;30;20055;-78
2020/12/07 13:50:43;;;;;;;6.00;4.72;;;2.70;99.90;;;;;;4730571;30;20072;-79
2020/12/07 13:53:09;;;;;;;7.10;5.07;;;2.70;99.90;;;;;;4730116;30;20060;-78
2020/12/07 13:55:35;;;;;;;6.32;5.13;;;2.60;99.90;;;;;;4730141;30;20148;-78
2020/12/07 13:58:08;;;;;;;7.65;5.00;;;2.60;99.90;;;;;;4730045;30;20053;-79
2020/12/07 14:00:36;;;;;;;6.75;4.38;;;2.50;99.90;;;;;;4730055;30;20099;-78
2020/12/07 14:03:03;;;;;;;8.75;5.05;;;2.50;99.90;;;;;;4714810;30;20080;-78
2020/12/07 14:05:34;;;;;;;7.72;4.90;;;2.50;99.90;;;;;;4730556;30;20506;-78
2020/12/07 14:08:00;;;;;;;45.05;21.75;;;2.50;99.90;;;;;;4730164;30;20402;-78
2020/12/07 14:10:27;;;;;;;64.07;29.77;;;2.50;99.90;;;;;;4716623;30;20441;-78
2020/12/07 14:12:54;;;;;;;59.13;32.15;;;2.50;99.90;;;;;;4729920;30;20055;-78
2020/12/07 14:15:20;;;;;;;41.28;22.38;;;2.50;99.90;;;;;;4715328;30;20430;-78
2020/12/07 14:17:58;;;;;;;19.55;11.65;;;2.50;99.90;;;;;;4701049;30;20057;-78
2020/12/07 14:20:37;;;;;;;11.80;7.03;;;2.60;99.90;;;;;;4702950;30;20489;-78
2020/12/07 14:23:10;;;;;;;9.40;6.50;;;2.60;99.90;;;;;;4686619;30;20060;-78
2020/12/07 14:39:15;;;;;;;24.60;11.30;;;2.20;99.90;;;;;;3919472;27;20102;-80
2020/12/07 14:46:11;;;;;;;6.60;4.50;;;2.50;99.90;;;;;;4852867;24;20512;-81
2020/12/07 14:48:40;;;;;;;7.22;4.65;;;2.50;99.90;;;;;;4736801;30;20109;-79
2020/12/07 14:54:06;;;;;;;7.28;4.53;;;2.40;99.90;;;;;;4761805;29;20099;-79
2020/12/07 14:56:46;;;;;;;6.25;4.38;;;2.40;99.90;;;;;;4736013;30;20060;-77
2020/12/07 15:07:07;;;;;;;9.38;4.97;;;2.40;99.90;;;;;;4735385;30;20139;-77
2020/12/07 15:15:01;;;;;;;7.60;5.13;;;2.40;99.90;;;;;;4737792;30;20060;-78
2020/12/07 15:17:33;;;;;;;8.15;5.07;;;2.40;99.90;;;;;;4738246;30;20067;-79
2020/12/07 15:20:04;;;;;;;7.43;5.00;;;2.40;99.90;;;;;;4730387;30;20131;-78
2020/12/07 15:22:36;;;;;;;7.68;5.03;;;2.30;99.90;;;;;;4734207;30;20060;-78
2020/12/07 15:25:03;;;;;;;11.95;8.88;;;2.30;99.90;;;;;;4734980;30;20044;-77
2020/12/07 15:27:30;;;;;;;9.27;5.55;;;2.30;99.90;;;;;;4735089;30;20072;-79
2020/12/07 15:29:57;;;;;;;7.85;5.05;;;2.30;99.90;;;;;;4720657;30;20510;-78
2020/12/07 15:32:29;;;;;;;7.95;5.50;;;2.30;99.90;;;;;;4720298;30;20052;-78
2020/12/07 15:34:56;;;;;;;9.20;6.32;;;2.30;99.90;;;;;;4705582;30;20056;-78
2020/12/07 15:37:22;;;;;;;11.00;7.63;;;2.30;99.90;;;;;;4734900;30;20063;-78
2020/12/07 15:39:49;;;;;;;10.95;7.35;;;2.30;99.90;;;;;;4734721;30;20059;-78
2020/12/07 15:42:16;;;;;;;15.63;10.38;;;2.20;99.90;;;;;;4719898;30;20055;-78
2020/12/07 15:44:43;;;;;;;12.75;9.48;;;2.20;99.90;;;;;;4734456;30;20143;-78
2020/12/07 15:47:15;;;;;;;13.60;8.95;;;2.20;99.90;;;;;;4719816;30;20052;-78
2020/12/07 15:49:47;;;;;;;10.98;6.82;;;2.20;99.90;;;;;;4749204;30;20056;-77
2020/12/07 15:52:18;;;;;;;7.97;6.13;;;2.30;99.90;;;;;;4733741;30;20057;-78
2020/12/07 15:54:45;;;;;;;9.02;6.40;;;2.20;99.90;;;;;;4734382;30;20057;-78
2020/12/07 15:57:12;;;;;;;9.43;6.22;;;2.20;99.90;;;;;;4739431;30;20129;-78
2020/12/07 15:59:39;;;;;;;26.83;13.32;;;2.20;99.90;;;;;;4741619;30;20086;-76
2020/12/07 16:02:06;;;;;;;18.00;10.00;;;2.20;99.90;;;;;;4731762;30;20513;-76
2020/12/07 16:04:32;;;;;;;12.55;8.00;;;2.20;99.90;;;;;;4724872;30;20064;-76
2020/12/07 16:07:04;;;;;;;14.35;10.10;;;2.20;99.90;;;;;;4726896;30;20109;-76
2020/12/07 16:09:31;;;;;;;13.48;9.68;;;2.40;99.90;;;;;;4740919;30;20087;-78
2020/12/07 16:12:03;;;;;;;11.45;7.35;;;2.40;99.90;;;;;;4726872;30;20052;-77
2020/12/07 16:14:35;;;;;;;12.23;8.07;;;2.40;99.90;;;;;;4725669;30;20516;-77
2020/12/07 16:17:02;;;;;;;12.90;8.68;;;2.30;99.90;;;;;;4727750;30;20090;-76
2020/12/07 16:19:29;;;;;;;11.38;7.45;;;2.30;99.90;;;;;;4728041;30;20052;-76
2020/12/07 16:21:56;;;;;;;12.10;8.27;;;2.30;99.90;;;;;;4727396;30;20060;-76
2020/12/07 16:24:23;;;;;;;13.30;9.02;;;2.30;99.90;;;;;;4726849;30;20052;-77
2020/12/07 16:26:53;;;;;;;10.60;7.55;;;2.30;99.90;;;;;;4740329;30;20052;-76
2020/12/07 16:29:20;;;;;;;12.50;8.68;;;2.20;99.90;;;;;;4740630;30;20110;-76
2020/12/07 16:31:52;;;;;;;13.52;9.27;;;2.20;99.90;;;;;;4741208;30;20052;-76
2020/12/07 16:34:19;;;;;;;17.48;12.20;;;2.10;99.90;;;;;;4728317;30;20052;-78
2020/12/07 16:36:50;;;;;;;13.65;9.18;;;2.10;99.90;;;;;;4726512;30;20056;-76
2020/12/07 16:39:25;;;;;;;14.52;9.98;;;2.10;99.90;;;;;;4739824;30;20051;-76
2020/12/07 16:41:57;;;;;;;16.95;11.73;;;2.10;99.90;;;;;;4741394;30;20101;-76
2020/12/07 16:44:26;;;;;;;14.32;10.48;;;2.10;99.90;;;;;;4741967;30;20059;-77
2020/12/07 16:46:57;;;;;;;14.85;10.25;;;2.10;99.90;;;;;;4757283;30;20044;-77
2020/12/07 16:49:27;;;;;;;14.60;9.95;;;2.10;99.90;;;;;;4725949;30;20060;-76
2020/12/07 16:51:54;;;;;;;14.43;10.23;;;2.00;99.90;;;;;;4726244;30;20052;-77
2020/12/07 16:54:26;;;;;;;21.63;15.15;;;2.00;99.90;;;;;;4727637;30;20044;-76
2020/12/07 16:56:57;;;;;;;17.75;11.98;;;2.00;99.90;;;;;;4729106;30;20139;-78
2020/12/07 16:59:29;;;;;;;18.00;10.95;;;2.00;99.90;;;;;;4737841;30;20048;-76
2020/12/07 17:02:00;;;;;;;17.15;11.57;;;2.00;99.90;;;;;;4725263;30;20056;-77
2020/12/07 17:04:32;;;;;;;14.68;9.98;;;2.00;99.90;;;;;;4741322;30;20104;-78
2020/12/07 17:07:00;;;;;;;16.33;8.68;;;2.00;99.90;;;;;;4733971;30;20060;-78
2020/12/07 17:09:29;;;;;;;15.95;9.60;;;2.00;99.90;;;;;;4734174;30;20417;-78
2020/12/07 17:11:56;;;;;;;15.23;9.05;;;1.90;99.90;;;;;;4724052;30;20056;-77
2020/12/07 17:14:23;;;;;;;19.77;12.40;;;1.90;99.90;;;;;;4730128;30;20063;-75
2020/12/07 17:16:50;;;;;;;27.52;16.85;;;2.00;99.90;;;;;;4738340;30;20060;-78
2020/12/07 17:19:17;;;;;;;24.67;15.88;;;2.10;99.90;;;;;;4735160;30;20509;-77
2020/12/07 17:21:45;;;;;;;17.75;12.40;;;2.10;99.90;;;;;;4739845;30;20055;-78
2020/12/07 17:24:11;;;;;;;19.85;11.48;;;2.10;99.90;;;;;;4752513;30;20505;-78
2020/12/07 17:26:39;;;;;;;21.10;12.68;;;2.10;99.90;;;;;;4738779;30;20059;-79
2020/12/07 17:29:11;;;;;;;20.48;12.00;;;2.00;99.90;;;;;;4744236;30;20131;-77
2020/12/07 17:31:43;;;;;;;18.42;11.73;;;2.00;99.90;;;;;;4739039;30;20060;-76
2020/12/07 17:34:14;;;;;;;20.88;13.32;;;2.00;99.90;;;;;;4738905;30;20083;-80
2020/12/07 17:36:42;;;;;;;21.10;12.10;;;2.00;99.90;;;;;;4756069;30;20059;-77
2020/12/07 17:39:09;;;;;;;20.17;12.10;;;1.90;99.90;;;;;;4746748;30;20052;-77
2020/12/07 17:41:36;;;;;;;23.42;13.38;;;1.90;99.90;;;;;;4735173;30;20063;-78
2020/12/07 17:44:03;;;;;;;22.45;12.20;;;1.90;99.90;;;;;;4737372;30;20090;-78
2020/12/07 17:46:35;;;;;;;23.70;12.73;;;1.90;99.90;;;;;;4728305;30;20140;-78
2020/12/07 17:49:06;;;;;;;21.88;12.90;;;1.90;99.90;;;;;;4753370;30;20119;-78
2020/12/07 17:51:33;;;;;;;22.67;13.10;;;1.80;99.90;;;;;;4755071;30;20060;-78
2020/12/07 17:54:02;;;;;;;24.25;13.93;;;1.80;99.90;;;;;;4755736;30;20063;-78
2020/12/07 17:56:34;;;;;;;23.65;13.38;;;1.80;99.90;;;;;;4755403;30;20249;-76
2020/12/07 17:59:00;;;;;;;25.65;15.15;;;1.80;99.90;;;;;;4749887;30;20484;-78
2020/12/07 18:01:26;;;;;;;23.15;14.57;;;1.80;99.90;;;;;;4736994;30;20064;-76
2020/12/07 18:03:53;;;;;;;25.52;14.70;;;1.80;99.90;;;;;;4737560;30;20048;-77
2020/12/07 18:06:20;;;;;;;20.70;13.90;;;1.80;99.90;;;;;;4728396;30;20417;-77
2020/12/07 18:08:47;;;;;;;23.30;14.80;;;1.80;99.90;;;;;;4728299;30;20060;-77
2020/12/07 18:11:15;;;;;;;25.02;15.38;;;1.80;99.90;;;;;;4745455;30;20044;-77
2020/12/07 18:13:42;;;;;;;22.70;13.55;;;1.80;99.90;;;;;;4752138;30;20142;-77
2020/12/07 18:16:09;;;;;;;21.52;13.02;;;1.80;99.90;;;;;;4725915;30;20097;-78
2020/12/07 18:18:35;;;;;;;23.45;14.23;;;1.80;99.90;;;;;;4744777;30;20059;-77
2020/12/07 18:21:11;;;;;;;25.23;13.63;;;1.80;99.90;;;;;;4740619;30;20297;-78
2020/12/07 18:23:38;;;;;;;26.05;15.23;;;1.80;99.90;;;;;;4742554;30;20040;-77
2020/12/07 18:26:05;;;;;;;29.55;18.73;;;1.80;99.90;;;;;;4732387;30;20060;-76
2020/12/07 18:28:31;;;;;;;27.45;17.25;;;1.80;99.90;;;;;;4739097;30;20087;-78
2020/12/07 18:30:58;;;;;;;25.90;16.45;;;1.80;99.90;;;;;;4740152;30;20135;-77
2020/12/07 18:33:24;;;;;;;24.90;15.27;;;1.80;99.90;;;;;;4738871;30;20080;-76
2020/12/07 18:35:50;;;;;;;25.65;15.25;;;1.80;99.90;;;;;;4738524;30;20147;-77
2020/12/07 18:38:16;;;;;;;31.15;17.08;;;1.80;99.90;;;;;;4737736;30;20057;-76
2020/12/07 18:40:43;;;;;;;27.52;16.70;;;1.80;99.90;;;;;;4750602;30;20079;-77
2020/12/07 18:43:10;;;;;;;28.85;15.85;;;1.80;99.90;;;;;;4739193;30;20062;-76
2020/12/07 18:45:37;;;;;;;27.75;14.85;;;1.80;99.90;;;;;;4752385;30;20059;-76
2020/12/07 18:48:03;;;;;;;25.67;14.82;;;1.80;99.90;;;;;;4752992;30;20052;-76
2020/12/07 18:50:29;;;;;;;25.10;15.32;;;1.90;99.90;;;;;;4757081;30;20273;-76
2020/12/07 18:52:56;;;;;;;27.30;14.10;;;1.80;99.90;;;;;;4756351;30;20131;-78
2020/12/07 18:55:27;;;;;;;27.27;15.57;;;1.80;99.90;;;;;;4756666;30;20048;-76
2020/12/07 18:57:53;;;;;;;35.88;21.02;;;1.90;99.90;;;;;;4741967;30;20056;-76
2020/12/07 19:00:24;;;;;;;30.15;18.08;;;1.90;99.90;;;;;;4756525;30;20051;-76
2020/12/07 19:02:51;;;;;;;26.67;16.17;;;1.90;99.90;;;;;;4756218;30;20048;-77
2020/12/07 19:05:17;;;;;;;27.75;17.42;;;1.90;99.90;;;;;;4756495;30;20052;-77
2020/12/07 19:07:43;;;;;;;30.88;16.45;;;1.80;99.90;;;;;;4754002;30;20130;-77
2020/12/07 19:10:10;;;;;;;28.27;17.80;;;1.80;99.90;;;;;;4754148;30;20052;-77
2020/12/07 19:12:37;;;;;;;27.13;16.10;;;1.80;99.90;;;;;;4739289;30;20056;-77
2020/12/07 19:15:04;;;;;;;31.17;16.00;;;1.80;99.90;;;;;;4738436;30;20504;-77
2020/12/07 19:17:35;;;;;;;25.80;14.85;;;1.80;99.90;;;;;;4738603;30;20051;-77
2020/12/07 19:20:08;;;;;;;29.42;15.65;;;1.80;99.90;;;;;;4740177;30;20052;-77
2020/12/07 19:22:36;;;;;;;24.23;15.18;;;1.80;99.90;;;;;;4742213;30;20533;-78
2020/12/07 19:25:06;;;;;;;27.88;15.93;;;1.80;99.90;;;;;;4741377;30;20102;-76
2020/12/07 19:27:33;;;;;;;25.38;15.52;;;1.90;99.90;;;;;;4739682;30;20083;-78
2020/12/07 19:30:05;;;;;;;26.88;16.60;;;1.90;99.90;;;;;;4742620;30;20063;-77
2020/12/07 19:32:31;;;;;;;27.17;15.73;;;1.80;99.90;;;;;;4757024;30;20059;-77
2020/12/07 19:34:58;;;;;;;28.15;15.50;;;1.90;99.90;;;;;;4742286;30;20052;-77
2020/12/07 19:37:24;;;;;;;25.35;14.07;;;1.80;99.90;;;;;;4743159;30;20056;-77
2020/12/07 19:39:56;;;;;;;26.02;15.15;;;1.80;99.90;;;;;;4729287;30;20063;-77
2020/12/07 19:42:22;;;;;;;28.70;17.60;;;1.80;99.90;;;;;;4724950;30;20480;-77
2020/12/07 19:44:49;;;;;;;26.77;15.73;;;1.80;99.90;;;;;;4738781;30;20111;-76
2020/12/07 19:47:15;;;;;;;23.10;14.60;;;1.80;99.90;;;;;;4724773;30;20593;-78
2020/12/07 19:49:41;;;;;;;25.42;14.80;;;1.80;99.90;;;;;;4742013;30;20724;-77
2020/12/07 19:52:14;;;;;;;26.17;14.73;;;1.80;99.90;;;;;;4729571;30;20056;-78
2020/12/07 19:54:48;;;;;;;23.45;13.80;;;1.80;99.90;;;;;;4743039;30;20049;-77
2020/12/07 19:57:19;;;;;;;25.83;14.75;;;1.80;99.90;;;;;;4725791;30;20057;-77
2020/12/07 19:59:46;;;;;;;28.33;15.32;;;1.80;99.90;;;;;;4749695;30;20071;-79
2020/12/07 20:02:13;;;;;;;41.58;22.40;;;1.80;99.90;;;;;;4732628;30;20086;-78
2020/12/07 20:04:44;;;;;;;36.13;18.90;;;1.80;99.90;;;;;;4745758;30;20497;-79
2020/12/07 20:07:10;;;;;;;31.83;17.23;;;1.80;99.90;;;;;;4730097;30;20060;-78
2020/12/07 20:09:41;;;;;;;30.92;17.15;;;1.80;99.90;;;;;;4743970;30;20068;-78
2020/12/07 20:12:13;;;;;;;27.35;16.80;;;1.80;99.90;;;;;;4730355;30;20056;-77
2020/12/07 20:14:44;;;;;;;27.73;16.67;;;1.80;99.90;;;;;;4744061;30;20539;-78
2020/12/07 20:17:16;;;;;;;29.27;17.30;;;1.80;99.90;;;;;;4743662;30;20087;-78
2020/12/07 20:19:42;;;;;;;25.50;15.43;;;1.80;99.90;;;;;;4743375;30;20052;-77
2020/12/07 20:22:08;;;;;;;26.13;14.48;;;1.80;99.90;;;;;;4729799;30;20533;-78
2020/12/07 20:24:40;;;;;;;24.52;14.70;;;1.70;99.90;;;;;;4743896;30;20135;-79
2020/12/07 20:27:06;;;;;;;27.13;14.63;;;1.80;99.90;;;;;;4737748;30;20102;-78
2020/12/07 20:29:36;;;;;;;28.98;16.23;;;1.70;99.90;;;;;;4743324;30;20099;-79
2020/12/07 20:32:02;;;;;;;27.52;15.40;;;1.70;99.90;;;;;;4744604;30;20483;-77
2020/12/07 20:34:29;;;;;;;28.50;16.42;;;1.70;99.90;;;;;;4758583;30;20147;-78
2020/12/07 20:36:55;;;;;;;28.73;16.70;;;1.70;99.90;;;;;;4743103;30;20066;-78
2020/12/07 20:39:21;;;;;;;31.35;17.90;;;1.70;99.90;;;;;;4755888;30;20060;-77
2020/12/07 20:41:48;;;;;;;31.85;17.10;;;1.70;99.90;;;;;;4758129;30;20085;-76
2020/12/07 20:44:15;;;;;;;32.20;16.30;;;1.70;99.90;;;;;;4742428;30;20122;-77
2020/12/07 20:46:45;;;;;;;30.05;16.60;;;1.70;99.90;;;;;;4757920;30;20056;-78
2020/12/07 20:49:13;;;;;;;29.08;15.90;;;1.70;99.90;;;;;;4742004;30;20094;-77
2020/12/07 20:51:39;;;;;;;28.08;15.60;;;1.70;99.90;;;;;;4743025;30;20060;-77
2020/12/07 20:54:06;;;;;;;28.13;15.10;;;1.70;99.90;;;;;;4741751;30;20063;-78
2020/12/07 20:56:32;;;;;;;28.13;16.80;;;1.70;99.90;;;;;;4756715;30;20066;-77
2020/12/07 20:58:59;;;;;;;29.48;16.38;;;1.60;99.90;;;;;;4740884;30;20056;-77
2020/12/07 21:01:25;;;;;;;29.65;16.20;;;1.60;99.90;;;;;;4756277;30;20056;-77
2020/12/07 21:03:57;;;;;;;32.25;16.67;;;1.60;99.90;;;;;;4755732;30;20044;-78
2020/12/07 21:06:28;;;;;;;26.80;15.13;;;1.60;99.90;;;;;;4752100;30;20079;-80
2020/12/07 21:08:55;;;;;;;27.35;15.70;;;1.60;99.90;;;;;;4737115;30;20429;-80
2020/12/07 21:11:24;;;;;;;28.13;16.17;;;1.70;99.90;;;;;;4751912;30;20048;-80
2020/12/07 21:13:51;;;;;;;29.73;16.42;;;1.70;99.90;;;;;;4737089;30;20051;-80
2020/12/07 21:16:19;;;;;;;32.10;17.13;;;1.70;99.90;;;;;;4751822;30;20136;-80
2020/12/07 21:18:48;;;;;;;30.05;16.65;;;1.70;99.90;;;;;;4737229;30;20048;-80
2020/12/07 21:21:15;;;;;;;28.67;16.48;;;1.70;99.90;;;;;;4737262;30;20487;-80
2020/12/07 21:29:42;;;;;;;31.60;18.17;;;1.70;99.90;;;;;;5216829;24;20060;-80
2020/12/07 21:32:10;;;;;;;34.90;19.23;;;1.70;99.90;;;;;;4736954;30;20071;-80
2020/12/07 21:34:44;;;;;;;34.70;19.05;;;1.70;99.90;;;;;;4736946;30;20113;-80
2020/12/07 21:37:12;;;;;;;28.55;16.92;;;1.60;99.90;;;;;;4736924;30;20588;-80
2020/12/07 21:39:41;;;;;;;30.70;17.63;;;1.60;99.90;;;;;;4722423;30;20057;-80
2020/12/07 21:42:09;;;;;;;32.97;18.80;;;1.70;99.90;;;;;;4736804;30;20686;-80
2020/12/07 21:44:41;;;;;;;30.10;17.83;;;1.70;99.90;;;;;;4736793;30;20451;-80
2020/12/07 21:47:09;;;;;;;31.25;17.88;;;1.70;99.90;;;;;;4736806;30;20098;-80
2020/12/07 21:49:37;;;;;;;31.63;17.45;;;1.70;99.90;;;;;;4736661;30;20598;-79
2020/12/07 21:52:10;;;;;;;34.30;19.00;;;1.70;99.90;;;;;;4736869;30;20135;-80
2020/12/07 21:54:38;;;;;;;36.78;21.55;;;1.70;99.90;;;;;;4736429;30;20052;-80
2020/12/07 21:57:11;;;;;;;42.33;22.48;;;1.70;99.90;;;;;;4736602;30;20059;-80
2020/12/07 21:59:38;;;;;;;43.88;22.90;;;1.70;99.90;;;;;;4736461;30;20078;-80
2020/12/07 22:02:13;;;;;;;43.05;23.00;;;1.80;99.90;;;;;;4736489;30;20135;-80
2020/12/07 22:04:41;;;;;;;43.25;21.67;;;1.80;99.90;;;;;;4722114;30;20084;-80
2020/12/07 22:07:21;;;;;;;35.65;19.42;;;1.80;99.90;;;;;;4736771;30;20075;-80
2020/12/07 22:09:49;;;;;;;32.70;19.20;;;1.80;99.90;;;;;;4722113;30;20056;-80
2020/12/07 22:12:17;;;;;;;33.15;18.80;;;1.80;99.90;;;;;;4736449;30;20063;-80
2020/12/07 22:14:45;;;;;;;29.80;17.33;;;1.80;99.90;;;;;;4722162;30;20056;-80
2020/12/07 22:17:14;;;;;;;33.47;18.38;;;1.80;99.90;;;;;;4736220;30;20110;-80
2020/12/07 22:19:47;;;;;;;34.13;17.98;;;1.80;99.90;;;;;;4736503;30;20398;-80
2020/12/07 22:22:16;;;;;;;30.55;18.30;;;1.80;99.90;;;;;;4736429;30;20048;-79
2020/12/07 22:24:44;;;;;;;29.27;17.60;;;1.80;99.90;;;;;;4735844;30;20517;-80
2020/12/07 22:27:12;;;;;;;34.22;19.85;;;1.90;99.90;;;;;;4736286;30;20056;-80
2020/12/07 22:29:40;;;;;;;29.42;17.67;;;1.80;99.90;;;;;;4721626;30;20531;-80
2020/12/07 22:32:12;;;;;;;34.20;17.58;;;1.80;99.90;;;;;;4736284;30;20048;-80
2020/12/07 22:34:40;;;;;;;31.90;18.73;;;1.80;99.90;;;;;;4736265;30;20053;-80
2020/12/07 22:37:08;;;;;;;30.25;16.90;;;1.80;99.90;;;;;;4736154;30;20584;-78
2020/12/07 22:39:37;;;;;;;27.45;16.20;;;1.80;99.90;;;;;;4736188;30;20127;-81
2020/12/07 22:42:05;;;;;;;28.48;16.92;;;1.90;99.90;;;;;;4735968;30;20507;-80
2020/12/07 22:44:33;;;;;;;29.60;17.00;;;1.90;99.90;;;;;;4721830;30;20113;-80
2020/12/07 22:47:06;;;;;;;29.20;16.92;;;1.90;99.90;;;;;;4736551;30;20052;-80
2020/12/07 22:49:34;;;;;;;28.25;16.00;;;1.80;99.90;;;;;;4721761;30;20052;-80
2020/12/07 22:52:01;;;;;;;26.20;15.00;;;1.80;99.90;;;;;;4736278;30;20059;-80
2020/12/07 22:54:29;;;;;;;28.80;15.77;;;1.80;99.90;;;;;;4721837;30;20121;-80
2020/12/07 22:56:57;;;;;;;24.67;15.20;;;1.80;99.90;;;;;;4736059;30;20070;-79
2020/12/07 22:59:30;;;;;;;92.53;40.13;;;1.80;99.90;;;;;;4736094;30;20044;-80
2020/12/07 23:01:58;;;;;;;98.45;43.33;;;1.80;99.90;;;;;;4735984;30;20056;-80
2020/12/07 23:04:32;;;;;;;85.53;38.38;;;1.80;99.90;;;;;;4722114;30;20052;-80
2020/12/07 23:07:00;;;;;;;48.90;24.90;;;1.80;99.90;;;;;;4736116;30;20052;-80
2020/12/07 23:09:28;;;;;;;38.30;21.67;;;1.80;99.90;;;;;;4721694;30;20049;-80
2020/12/07 23:11:56;;;;;;;35.10;20.92;;;1.80;99.90;;;;;;4736085;30;20525;-80
2020/12/07 23:14:27;;;;;;;32.78;18.10;;;1.80;99.90;;;;;;4735875;30;20056;-80
2020/12/07 23:16:54;;;;;;;38.03;22.27;;;1.80;99.90;;;;;;4735863;30;20067;-79
2020/12/07 23:19:23;;;;;;;35.30;22.67;;;1.80;99.90;;;;;;4721437;30;20075;-80
2020/12/07 23:21:51;;;;;;;33.85;22.40;;;1.80;99.90;;;;;;4736144;30;20048;-80
2020/12/07 23:24:20;;;;;;;32.08;18.77;;;1.80;99.90;;;;;;4735784;30;20110;-80
2020/12/07 23:26:48;;;;;;;32.13;19.42;;;1.90;99.90;;;;;;4735704;30;20053;-80
2020/12/07 23:29:22;;;;;;;37.33;21.25;;;1.80;99.90;;;;;;4735611;30;20144;-80
2020/12/07 23:31:54;;;;;;;;;;;1.80;99.90;;;;;;4736443;30;20052;-80
2020/12/07 23:34:23;;;;;;;26.20;13.63;;;1.80;99.90;;;;;;4735752;30;19933;-79
2020/12/07 23:36:57;;;;;;;29.33;16.40;;;1.80;99.90;;;;;;4738311;30;20596;-80
2020/12/07 23:39:25;;;;;;;25.50;15.55;;;1.80;99.90;;;;;;4723638;30;20052;-80
2020/12/07 23:41:54;;;;;;;23.77;14.52;;;1.80;99.90;;;;;;4738894;30;20529;-80
2020/12/07 23:44:21;;;;;;;27.17;15.80;;;1.80;99.90;;;;;;4738281;30;20049;-80
2020/12/07 23:47:16;;;;;;;23.70;14.70;;;1.80;99.90;;;;;;4738685;30;20521;-80
2020/12/07 23:49:49;;;;;;;26.92;14.82;;;1.80;99.90;;;;;;4738678;30;20056;-80
2020/12/07 23:52:16;;;;;;;23.42;13.95;;;1.80;99.90;;;;;;4738688;30;20147;-80
2020/12/07 23:57:41;;;;;;;25.23;14.80;;;1.80;99.90;;;;;;4795530;24;20064;-81
